Terminal Aerodrome Forecast
Issued by NWS

Home | Current Version | Previous Version | Text Only | Print | Product List | Glossary On
Versions: 1 2 3 4 5 6 7 8 9 10 11 12 13 14 15 16 17 18 19 20 21 22 23 24 25 26 27 28 29 30 31 32 33 34 35 36
000
FTUS45 KBOU 260456 AAC
TAFAPA
TAF AMD
KAPA 260456Z 2605/2624 03012G18KT 3SM -SN BR SCT008 OVC018
      TEMPO 2605/2608 1SM -SN BKN006
     FM260800 03010G16KT 4SM -SN BR SCT008 OVC020
      TEMPO 2608/2612 1SM -SN BKN008
     FM261200 02007KT 4SM -SN BR SCT011 OVC025
     FM262100 04007KT 5SM -SN BR SCT015 OVC030=

USA.gov is the U.S. government's official web portal to all federal, state and local government web resources and services.